Pickle Lake Airport
CYPL : now visible

Airfield :











YOU CAN JOIN US ON...

 
LOGIN :

Register | Disclaimer

   EN    FR    IT 

 









Legend :    VFR   Marginal VFR   IFR   Intensive IFR   Very Intensive IFR
Visi :
Ceiling :
>= 8 km
>= 3000ft
5 to 8 km
1000 to 3000 ft
1500m to 5 km
500 to 1000 ft
800 to 1500m
200 to 500 ft
< 800m
< 200 ft
Symbols :   Thunderstorms  Fog  Heavy snow  Heavy precipitations  Wind > 20 kt






- Airport Elevation : 1267 ft
- IATA code : YPL


CYPL - Pickle Lake

CURRENT METAR :
  • 140604Z AUTO 30007G15KT 250V330 3SM -SN FEW020 OVC032 M11/M13 A2988 RMK SLP153

EXPIRED METARs :
  • 140557Z AUTO 29007G15KT 2 1/2SM -SN FEW018 BKN030 OVC035 M10/M13 A2988 RMK VIS VRB 1 1/2-3 SLP154
  • 140500Z AUTO 29010G15KT 9SM -SN OVC035 M10/M12 A2987 RMK SLP150
  • 140443Z AUTO 28007KT 9SM -SN OVC037 M10/M12 A2987 RMK SLP151
  • 140400Z AUTO 28007KT 9SM -SN OVC037 M10/M12 A2987 RMK SLP151

TAF TAF CYPL
Valid from the 14 at 02:00 until the 14 at 14:00 UTC


140138Z 1402/1414 28008KT P6SM FEW020 OVC040
TEMPO 1402/1413 5SM -SN BKN020
FM141300 24010KT 2SM -SN OVC012
PROB30 1413/1414 3/4SM -SN VV007 RMK FCST BASED ON AUTO OBS. NXT FCST BY 140800Z



MET'MAP, your aeronautical weather chart ! - Copyright ORBIFLY December 2007 - Disclaimer

ORBIFLY MET'MAP TEAM :

Programming & Development : Alexandra Zaïnal
Concept & Development : Baudouin d'Aumeries
Co-Development & Prog : Marc-Olivier Méhu
Technical & hardware support : Manuel Goepfert

Contact : metmap@orbifly.com




SOURCES & CREDITS :

   NOAA       Earth
Advisory